This is the latest recevied weather packets stored in our database for station/object K4OAM-13. If no packets are shown the sender has not sent any weather packets the latest 10 day(s).
| Time | Temp. | Humidity | Pressure | Rain* | Wind** | Luminosity | Snow |
|---|---|---|---|---|---|---|---|
| 1777773956 | 0.56° C | 83% | 1020.7 hPa | - | - | - | - |
| 1777773356 | 0.56° C | 84% | 1020.9 hPa | - | - | - | - |
| 1777772756 | 0.56° C | 83% | 1021.2 hPa | - | - | - | - |
| 1777772156 | 1.11° C | 80% | 1021 hPa | - | - | - | - |
| 1777771556 | 0.56° C | 84% | 1021.3 hPa | - | - | - | - |
| 1777770956 | 0.56° C | 84% | 1021.3 hPa | - | - | - | - |
| 1777770356 | 0.56° C | 84% | 1021.2 hPa | - | - | - | - |
| 1777769756 | 1.11° C | 82% | 1021.1 hPa | - | - | - | - |
| 1777769156 | 0.56° C | 84% | 1021.3 hPa | - | - | - | - |
| 1777768556 | 1.11° C | 82% | 1021.2 hPa | - | - | - | - |
| 1777767956 | 1.11° C | 81% | 1021.2 hPa | - | - | - | - |
| 1777767356 | 2.22° C | 78% | 1021 hPa | - | - | - | - |
| 1777766756 | 1.67° C | 80% | 1021.2 hPa | - | - | - | - |
| 1777766156 | 1.67° C | 79% | 1021.1 hPa | - | - | - | - |
| 1777765556 | 2.22° C | 76% | 1021 hPa | - | - | - | - |
| 1777764959 | 2.22° C | 77% | 1021 hPa | - | - | - | - |
| 1777764356 | 2.22° C | 77% | 1021.1 hPa | - | - | - | - |
| 1777763756 | 2.78° C | 77% | 1021 hPa | - | - | - | - |
| 1777763156 | 2.78° C | 77% | 1021.1 hPa | - | - | - | - |
| 1777762556 | 2.78° C | 78% | 1021.1 hPa | - | - | - | - |
| 1777761956 | 3.33° C | 78% | 1020.9 hPa | - | - | - | - |
| 1777761356 | 3.89° C | 76% | 1020.6 hPa | - | - | - | - |
| 1777760756 | 3.89° C | 77% | 1020.7 hPa | - | - | - | - |
| 1777760156 | 3.89° C | 75% | 1020.7 hPa | - | - | - | - |
| 1777759556 | 5° C | 73% | 1020.6 hPa | - | - | - | - |
* Rain since midnight (hover to see other rain measurements)
** Current wind speed in m/s (hover to see current wind gust speed)